الصفحة الرئيسية
METAR-TAF:

METAR-TAF

مطار :

Pipestone Municipal Airport

Pipestone, مينيسوتا, الولايات المتحدة

دائرة عرض: 43-59N, خط طول: 096-19W, ارتفاع: 529 متر

مراقبة الطقس الحالي

تاريخ ووقت الإصدار 17 دقيقة قبل الساعة 07:16UTC
ريح 3 عقدة من الشمال/الشمال الغربي
درجة الحرارة -2°درجة مئوية
الرطوبة 93%
ضغط 1022 hPa
الرؤية: 16.1 كم
سماء صافية

METAR: KPQN 210716Z AUTO 33003KT 10SM CLR M02/M03 A3017 RMK AO2

زمن: 02:33 (07:33 UTC)


TAF: مفقودة

أرصاد الطقس والتوقعات من أكثر من 4000 مطار (تقارير الطقس للمطار METAR والتنبؤ بالطقس بالمطارTAF).

المحطات المتاحة هي النقط الصفراء والحمراء على الخريطة.

حرك المؤشر فوق النقطة لمعرفة اسم المحطة.

ثم انقر لمعرفة أرصاد وتوقعات الطقس.

لتغيير الخارطة: اضغط على الأزرار الخضراء مع رمز الصليب الأسود للتكبير. على الزر الأخضر مع شرطة للتصغير، أو على الأسهم الخضراء للخرائط المجاورة.


METAR-TAF: